sensor_id;sensor_type;location;lat;lon;timestamp;temperature;humidity
55135;DHT22;41031;44.750;11.308;2023-04-05T00:00:31;5.30;69.60
55135;DHT22;41031;44.750;11.308;2023-04-05T00:02:59;5.30;70.00
55135;DHT22;41031;44.750;11.308;2023-04-05T00:05:27;5.30;70.90
55135;DHT22;41031;44.750;11.308;2023-04-05T00:07:57;5.20;71.30
55135;DHT22;41031;44.750;11.308;2023-04-05T00:10:27;5.20;71.80
55135;DHT22;41031;44.750;11.308;2023-04-05T00:12:54;5.20;72.10
55135;DHT22;41031;44.750;11.308;2023-04-05T00:15:21;5.10;72.20
55135;DHT22;41031;44.750;11.308;2023-04-05T00:17:49;5.10;72.20
55135;DHT22;41031;44.750;11.308;2023-04-05T00:20:16;5.10;71.90
55135;DHT22;41031;44.750;11.308;2023-04-05T00:22:43;5.10;71.80
55135;DHT22;41031;44.750;11.308;2023-04-05T00:25:11;5.00;72.00
55135;DHT22;41031;44.750;11.308;2023-04-05T00:27:39;5.00;72.10
55135;DHT22;41031;44.750;11.308;2023-04-05T00:30:08;5.00;72.30
55135;DHT22;41031;44.750;11.308;2023-04-05T00:32:36;5.00;72.40
55135;DHT22;41031;44.750;11.308;2023-04-05T00:35:03;4.90;72.30
55135;DHT22;41031;44.750;11.308;2023-04-05T00:37:30;4.90;71.90
55135;DHT22;41031;44.750;11.308;2023-04-05T00:39:57;4.90;71.60
55135;DHT22;41031;44.750;11.308;2023-04-05T00:42:24;4.90;71.80
55135;DHT22;41031;44.750;11.308;2023-04-05T00:44:51;4.90;71.90
55135;DHT22;41031;44.750;11.308;2023-04-05T00:47:18;4.80;71.90
55135;DHT22;41031;44.750;11.308;2023-04-05T00:49:47;4.80;72.10
55135;DHT22;41031;44.750;11.308;2023-04-05T00:52:14;4.80;72.50
55135;DHT22;41031;44.750;11.308;2023-04-05T00:54:41;4.80;72.70
55135;DHT22;41031;44.750;11.308;2023-04-05T00:57:09;4.80;72.90
55135;DHT22;41031;44.750;11.308;2023-04-05T00:59:36;4.70;73.30
55135;DHT22;41031;44.750;11.308;2023-04-05T01:02:22;4.70;73.50
55135;DHT22;41031;44.750;11.308;2023-04-05T01:04:58;4.70;73.90
55135;DHT22;41031;44.750;11.308;2023-04-05T01:07:32;4.60;74.00
55135;DHT22;41031;44.750;11.308;2023-04-05T01:10:05;4.60;74.20
55135;DHT22;41031;44.750;11.308;2023-04-05T01:12:34;4.60;74.40
55135;DHT22;41031;44.750;11.308;2023-04-05T01:15:03;4.60;74.30
55135;DHT22;41031;44.750;11.308;2023-04-05T01:17:30;4.60;74.30
55135;DHT22;41031;44.750;11.308;2023-04-05T01:20:08;4.50;74.50
55135;DHT22;41031;44.750;11.308;2023-04-05T01:25:48;4.50;74.10
55135;DHT22;41031;44.750;11.308;2023-04-05T01:36:44;4.40;74.80
55135;DHT22;41031;44.750;11.308;2023-04-05T01:39:16;4.40;74.80
55135;DHT22;41031;44.750;11.308;2023-04-05T01:41:43;4.40;74.70
55135;DHT22;41031;44.750;11.308;2023-04-05T01:44:10;4.30;75.20
55135;DHT22;41031;44.750;11.308;2023-04-05T01:46:37;4.30;75.30
55135;DHT22;41031;44.750;11.308;2023-04-05T01:49:05;4.30;75.70
55135;DHT22;41031;44.750;11.308;2023-04-05T01:51:31;4.30;76.00
55135;DHT22;41031;44.750;11.308;2023-04-05T01:53:59;4.30;76.10
55135;DHT22;41031;44.750;11.308;2023-04-05T01:56:26;4.30;76.10
55135;DHT22;41031;44.750;11.308;2023-04-05T01:58:53;4.30;76.00
55135;DHT22;41031;44.750;11.308;2023-04-05T02:01:20;4.30;76.10
55135;DHT22;41031;44.750;11.308;2023-04-05T02:03:47;4.30;76.00
55135;DHT22;41031;44.750;11.308;2023-04-05T02:06:14;4.30;75.90
55135;DHT22;41031;44.750;11.308;2023-04-05T02:08:42;4.20;75.90
55135;DHT22;41031;44.750;11.308;2023-04-05T02:11:09;4.30;76.10
55135;DHT22;41031;44.750;11.308;2023-04-05T02:13:36;4.20;76.00
55135;DHT22;41031;44.750;11.308;2023-04-05T02:16:03;4.20;76.00
55135;DHT22;41031;44.750;11.308;2023-04-05T02:18:30;4.20;76.00
55135;DHT22;41031;44.750;11.308;2023-04-05T02:21:05;4.20;76.00
55135;DHT22;41031;44.750;11.308;2023-04-05T02:23:33;4.20;76.00
55135;DHT22;41031;44.750;11.308;2023-04-05T02:26:00;4.10;75.80
55135;DHT22;41031;44.750;11.308;2023-04-05T02:28:29;4.10;75.70
55135;DHT22;41031;44.750;11.308;2023-04-05T02:30:56;4.10;75.70
55135;DHT22;41031;44.750;11.308;2023-04-05T02:33:23;4.00;76.10
55135;DHT22;41031;44.750;11.308;2023-04-05T02:35:51;4.10;76.40
55135;DHT22;41031;44.750;11.308;2023-04-05T02:38:18;4.00;76.60
55135;DHT22;41031;44.750;11.308;2023-04-05T02:40:47;4.00;76.80
55135;DHT22;41031;44.750;11.308;2023-04-05T02:43:15;4.00;76.90
55135;DHT22;41031;44.750;11.308;2023-04-05T02:45:42;4.00;76.80
55135;DHT22;41031;44.750;11.308;2023-04-05T02:48:13;4.00;76.80
55135;DHT22;41031;44.750;11.308;2023-04-05T02:50:40;4.00;76.90
55135;DHT22;41031;44.750;11.308;2023-04-05T02:53:08;4.00;77.10
55135;DHT22;41031;44.750;11.308;2023-04-05T02:55:35;4.00;77.20
55135;DHT22;41031;44.750;11.308;2023-04-05T02:58:02;4.00;77.40
55135;DHT22;41031;44.750;11.308;2023-04-05T03:00:38;4.00;77.30
55135;DHT22;41031;44.750;11.308;2023-04-05T03:03:08;4.00;77.10
55135;DHT22;41031;44.750;11.308;2023-04-05T03:05:39;3.90;76.90
55135;DHT22;41031;44.750;11.308;2023-04-05T03:08:09;3.90;76.80
55135;DHT22;41031;44.750;11.308;2023-04-05T03:10:54;3.90;76.70
55135;DHT22;41031;44.750;11.308;2023-04-05T03:13:21;3.80;76.70
55135;DHT22;41031;44.750;11.308;2023-04-05T03:15:52;3.80;76.90
55135;DHT22;41031;44.750;11.308;2023-04-05T03:18:21;3.80;77.10
55135;DHT22;41031;44.750;11.308;2023-04-05T03:20:53;3.80;77.30
55135;DHT22;41031;44.750;11.308;2023-04-05T03:23:28;3.70;77.20
55135;DHT22;41031;44.750;11.308;2023-04-05T03:26:00;3.70;77.60
55135;DHT22;41031;44.750;11.308;2023-04-05T03:28:31;3.70;77.80
55135;DHT22;41031;44.750;11.308;2023-04-05T03:31:02;3.60;78.00
55135;DHT22;41031;44.750;11.308;2023-04-05T03:33:29;3.60;78.00
55135;DHT22;41031;44.750;11.308;2023-04-05T03:35:56;3.60;77.90
55135;DHT22;41031;44.750;11.308;2023-04-05T03:38:24;3.50;78.00
55135;DHT22;41031;44.750;11.308;2023-04-05T03:41:13;3.50;78.20
55135;DHT22;41031;44.750;11.308;2023-04-05T03:43:42;3.50;78.20
55135;DHT22;41031;44.750;11.308;2023-04-05T03:46:09;3.40;78.20
55135;DHT22;41031;44.750;11.308;2023-04-05T03:48:36;3.30;78.20
55135;DHT22;41031;44.750;11.308;2023-04-05T03:51:03;3.30;78.60
55135;DHT22;41031;44.750;11.308;2023-04-05T03:53:30;3.30;78.70
55135;DHT22;41031;44.750;11.308;2023-04-05T03:55:58;3.20;78.60
55135;DHT22;41031;44.750;11.308;2023-04-05T03:58:47;3.20;78.70
55135;DHT22;41031;44.750;11.308;2023-04-05T04:01:16;3.10;78.90
55135;DHT22;41031;44.750;11.308;2023-04-05T04:03:44;3.00;79.10
55135;DHT22;41031;44.750;11.308;2023-04-05T04:06:11;3.00;79.20
55135;DHT22;41031;44.750;11.308;2023-04-05T04:08:40;3.00;79.50
55135;DHT22;41031;44.750;11.308;2023-04-05T04:11:07;3.00;79.70
55135;DHT22;41031;44.750;11.308;2023-04-05T04:13:37;3.10;80.00
55135;DHT22;41031;44.750;11.308;2023-04-05T04:16:15;3.10;80.10
55135;DHT22;41031;44.750;11.308;2023-04-05T04:18:44;3.10;80.20
55135;DHT22;41031;44.750;11.308;2023-04-05T04:21:22;3.10;80.40
55135;DHT22;41031;44.750;11.308;2023-04-05T04:24:10;3.10;80.10
55135;DHT22;41031;44.750;11.308;2023-04-05T04:27:03;3.10;79.90
55135;DHT22;41031;44.750;11.308;2023-04-05T04:30:13;3.10;80.00
55135;DHT22;41031;44.750;11.308;2023-04-05T04:33:04;3.10;80.30
55135;DHT22;41031;44.750;11.308;2023-04-05T04:35:42;3.10;80.50
55135;DHT22;41031;44.750;11.308;2023-04-05T04:38:35;3.00;80.20
55135;DHT22;41031;44.750;11.308;2023-04-05T04:41:12;3.00;80.30
55135;DHT22;41031;44.750;11.308;2023-04-05T04:44:06;3.00;80.20
55135;DHT22;41031;44.750;11.308;2023-04-05T04:46:39;3.00;80.40
55135;DHT22;41031;44.750;11.308;2023-04-05T04:49:26;3.00;80.40
55135;DHT22;41031;44.750;11.308;2023-04-05T04:51:54;3.00;80.30
55135;DHT22;41031;44.750;11.308;2023-04-05T04:54:22;3.00;80.50
55135;DHT22;41031;44.750;11.308;2023-04-05T04:56:49;3.00;80.70
55135;DHT22;41031;44.750;11.308;2023-04-05T04:59:16;3.00;80.70
55135;DHT22;41031;44.750;11.308;2023-04-05T05:01:46;3.10;80.70
55135;DHT22;41031;44.750;11.308;2023-04-05T05:04:13;3.10;80.80
55135;DHT22;41031;44.750;11.308;2023-04-05T05:06:41;3.10;80.80
55135;DHT22;41031;44.750;11.308;2023-04-05T05:09:08;3.20;80.70
55135;DHT22;41031;44.750;11.308;2023-04-05T05:11:57;3.10;80.50
55135;DHT22;41031;44.750;11.308;2023-04-05T05:14:25;3.10;80.50
55135;DHT22;41031;44.750;11.308;2023-04-05T05:16:52;3.20;80.70
55135;DHT22;41031;44.750;11.308;2023-04-05T05:19:20;3.20;80.90
55135;DHT22;41031;44.750;11.308;2023-04-05T05:21:53;3.20;81.00
55135;DHT22;41031;44.750;11.308;2023-04-05T05:24:20;3.20;81.00
55135;DHT22;41031;44.750;11.308;2023-04-05T05:26:48;3.30;81.10
55135;DHT22;41031;44.750;11.308;2023-04-05T05:29:16;3.30;81.10
55135;DHT22;41031;44.750;11.308;2023-04-05T05:31:44;3.30;81.20
55135;DHT22;41031;44.750;11.308;2023-04-05T05:34:11;3.30;81.10
55135;DHT22;41031;44.750;11.308;2023-04-05T05:36:42;3.30;81.00
55135;DHT22;41031;44.750;11.308;2023-04-05T05:39:09;3.30;81.10
55135;DHT22;41031;44.750;11.308;2023-04-05T05:41:36;3.30;81.20
55135;DHT22;41031;44.750;11.308;2023-04-05T05:44:03;3.40;81.30
55135;DHT22;41031;44.750;11.308;2023-04-05T05:46:30;3.40;81.30
55135;DHT22;41031;44.750;11.308;2023-04-05T05:48:57;3.40;81.20
55135;DHT22;41031;44.750;11.308;2023-04-05T05:51:24;3.50;81.20
55135;DHT22;41031;44.750;11.308;2023-04-05T05:53:51;3.50;81.30
55135;DHT22;41031;44.750;11.308;2023-04-05T05:56:18;3.60;81.30
55135;DHT22;41031;44.750;11.308;2023-04-05T05:58:45;3.60;81.00
55135;DHT22;41031;44.750;11.308;2023-04-05T06:01:12;3.60;81.00
55135;DHT22;41031;44.750;11.308;2023-04-05T06:03:40;3.50;80.70
55135;DHT22;41031;44.750;11.308;2023-04-05T06:06:07;3.50;80.70
55135;DHT22;41031;44.750;11.308;2023-04-05T06:08:37;3.50;80.70
55135;DHT22;41031;44.750;11.308;2023-04-05T06:11:04;3.60;81.00
55135;DHT22;41031;44.750;11.308;2023-04-05T06:13:31;3.60;81.10
55135;DHT22;41031;44.750;11.308;2023-04-05T06:16:00;3.80;81.20
55135;DHT22;41031;44.750;11.308;2023-04-05T06:18:27;3.90;80.90
55135;DHT22;41031;44.750;11.308;2023-04-05T06:20:54;4.00;80.40
55135;DHT22;41031;44.750;11.308;2023-04-05T06:23:21;4.10;79.70
55135;DHT22;41031;44.750;11.308;2023-04-05T06:25:48;4.10;79.60
55135;DHT22;41031;44.750;11.308;2023-04-05T06:28:15;4.10;79.60
55135;DHT22;41031;44.750;11.308;2023-04-05T06:30:42;4.10;79.70
55135;DHT22;41031;44.750;11.308;2023-04-05T06:33:09;4.20;79.80
55135;DHT22;41031;44.750;11.308;2023-04-05T06:35:36;4.30;80.00
55135;DHT22;41031;44.750;11.308;2023-04-05T06:38:03;4.40;80.30
55135;DHT22;41031;44.750;11.308;2023-04-05T06:40:30;4.40;80.50
55135;DHT22;41031;44.750;11.308;2023-04-05T06:42:57;4.50;80.60
55135;DHT22;41031;44.750;11.308;2023-04-05T06:45:28;4.60;80.60
55135;DHT22;41031;44.750;11.308;2023-04-05T06:47:55;4.70;80.50
55135;DHT22;41031;44.750;11.308;2023-04-05T06:50:22;4.80;80.60
55135;DHT22;41031;44.750;11.308;2023-04-05T06:52:49;4.90;80.70
55135;DHT22;41031;44.750;11.308;2023-04-05T06:55:16;5.10;80.70
55135;DHT22;41031;44.750;11.308;2023-04-05T06:57:43;5.30;80.40
55135;DHT22;41031;44.750;11.308;2023-04-05T07:00:11;5.50;80.10
55135;DHT22;41031;44.750;11.308;2023-04-05T07:02:39;5.70;79.80
55135;DHT22;41031;44.750;11.308;2023-04-05T07:05:06;5.90;79.30
55135;DHT22;41031;44.750;11.308;2023-04-05T07:07:41;6.10;78.80
55135;DHT22;41031;44.750;11.308;2023-04-05T07:10:10;6.30;78.50
55135;DHT22;41031;44.750;11.308;2023-04-05T07:12:38;6.50;78.00
55135;DHT22;41031;44.750;11.308;2023-04-05T07:15:06;6.80;77.70
55135;DHT22;41031;44.750;11.308;2023-04-05T07:17:33;6.90;76.90
55135;DHT22;41031;44.750;11.308;2023-04-05T07:20:00;7.20;76.30
55135;DHT22;41031;44.750;11.308;2023-04-05T07:22:27;7.40;75.40
55135;DHT22;41031;44.750;11.308;2023-04-05T07:24:54;7.60;74.80
55135;DHT22;41031;44.750;11.308;2023-04-05T07:27:22;7.80;74.20
55135;DHT22;41031;44.750;11.308;2023-04-05T07:29:49;7.90;73.30
55135;DHT22;41031;44.750;11.308;2023-04-05T07:32:16;8.10;72.80
55135;DHT22;41031;44.750;11.308;2023-04-05T07:34:43;8.30;72.20
55135;DHT22;41031;44.750;11.308;2023-04-05T07:37:10;8.50;71.40
55135;DHT22;41031;44.750;11.308;2023-04-05T07:39:36;8.70;69.60
55135;DHT22;41031;44.750;11.308;2023-04-05T07:42:04;8.80;69.00
55135;DHT22;41031;44.750;11.308;2023-04-05T07:44:31;8.90;67.30
55135;DHT22;41031;44.750;11.308;2023-04-05T07:46:58;9.00;66.80
55135;DHT22;41031;44.750;11.308;2023-04-05T07:49:25;9.10;66.50
55135;DHT22;41031;44.750;11.308;2023-04-05T07:51:54;9.20;66.00
55135;DHT22;41031;44.750;11.308;2023-04-05T07:54:22;9.30;65.40
55135;DHT22;41031;44.750;11.308;2023-04-05T07:56:50;9.30;65.10
55135;DHT22;41031;44.750;11.308;2023-04-05T07:59:17;9.50;65.80
55135;DHT22;41031;44.750;11.308;2023-04-05T08:01:44;9.60;66.00
55135;DHT22;41031;44.750;11.308;2023-04-05T08:04:11;9.80;66.20
55135;DHT22;41031;44.750;11.308;2023-04-05T08:06:38;10.00;64.40
55135;DHT22;41031;44.750;11.308;2023-04-05T08:09:05;10.10;62.30
55135;DHT22;41031;44.750;11.308;2023-04-05T08:11:34;10.20;61.40
55135;DHT22;41031;44.750;11.308;2023-04-05T08:14:01;10.30;61.50
55135;DHT22;41031;44.750;11.308;2023-04-05T08:16:28;10.30;61.80
55135;DHT22;41031;44.750;11.308;2023-04-05T08:18:55;10.50;61.50
55135;DHT22;41031;44.750;11.308;2023-04-05T08:21:22;10.70;61.30
55135;DHT22;41031;44.750;11.308;2023-04-05T08:23:49;10.80;56.40
55135;DHT22;41031;44.750;11.308;2023-04-05T08:26:17;11.00;58.00
55135;DHT22;41031;44.750;11.308;2023-04-05T08:28:44;11.10;58.10
55135;DHT22;41031;44.750;11.308;2023-04-05T08:31:11;11.30;57.90
55135;DHT22;41031;44.750;11.308;2023-04-05T08:33:39;11.40;55.60
55135;DHT22;41031;44.750;11.308;2023-04-05T08:36:07;11.50;56.60
55135;DHT22;41031;44.750;11.308;2023-04-05T08:38:35;11.50;55.50
55135;DHT22;41031;44.750;11.308;2023-04-05T08:41:17;11.50;52.50
55135;DHT22;41031;44.750;11.308;2023-04-05T08:44:01;11.30;51.00
55135;DHT22;41031;44.750;11.308;2023-04-05T08:46:30;11.20;52.00
55135;DHT22;41031;44.750;11.308;2023-04-05T08:48:58;11.20;52.20
55135;DHT22;41031;44.750;11.308;2023-04-05T08:51:25;11.10;52.40
55135;DHT22;41031;44.750;11.308;2023-04-05T08:53:52;11.10;52.50
55135;DHT22;41031;44.750;11.308;2023-04-05T08:56:40;11.20;52.70
55135;DHT22;41031;44.750;11.308;2023-04-05T08:59:12;11.40;51.20
55135;DHT22;41031;44.750;11.308;2023-04-05T09:01:43;11.50;51.90
55135;DHT22;41031;44.750;11.308;2023-04-05T09:04:21;11.60;53.40
55135;DHT22;41031;44.750;11.308;2023-04-05T09:06:51;11.70;51.70
55135;DHT22;41031;44.750;11.308;2023-04-05T09:09:20;11.80;49.00
55135;DHT22;41031;44.750;11.308;2023-04-05T09:11:47;12.00;49.60
55135;DHT22;41031;44.750;11.308;2023-04-05T09:14:16;12.30;51.00
55135;DHT22;41031;44.750;11.308;2023-04-05T09:16:43;12.50;50.60
55135;DHT22;41031;44.750;11.308;2023-04-05T09:19:10;12.70;48.30
55135;DHT22;41031;44.750;11.308;2023-04-05T09:22:00;12.70;48.70
55135;DHT22;41031;44.750;11.308;2023-04-05T09:27:04;12.80;44.80
55135;DHT22;41031;44.750;11.308;2023-04-05T09:29:32;12.80;47.50
55135;DHT22;41031;44.750;11.308;2023-04-05T09:32:01;12.90;47.70
55135;DHT22;41031;44.750;11.308;2023-04-05T09:34:31;13.10;47.20
55135;DHT22;41031;44.750;11.308;2023-04-05T09:36:59;13.10;43.00
55135;DHT22;41031;44.750;11.308;2023-04-05T09:39:28;13.00;44.20
55135;DHT22;41031;44.750;11.308;2023-04-05T09:42:06;12.80;44.70
55135;DHT22;41031;44.750;11.308;2023-04-05T09:44:58;12.70;44.00
55135;DHT22;41031;44.750;11.308;2023-04-05T09:47:36;12.50;44.00
55135;DHT22;41031;44.750;11.308;2023-04-05T09:50:26;12.30;44.90
55135;DHT22;41031;44.750;11.308;2023-04-05T09:53:10;12.20;43.00
55135;DHT22;41031;44.750;11.308;2023-04-05T09:55:42;12.00;45.60
55135;DHT22;41031;44.750;11.308;2023-04-05T09:58:17;12.10;45.70
55135;DHT22;41031;44.750;11.308;2023-04-05T10:00:49;12.20;43.90
55135;DHT22;41031;44.750;11.308;2023-04-05T10:03:29;12.20;43.50
55135;DHT22;41031;44.750;11.308;2023-04-05T10:05:56;12.20;44.60
55135;DHT22;41031;44.750;11.308;2023-04-05T10:08:23;12.10;43.50
55135;DHT22;41031;44.750;11.308;2023-04-05T10:10:51;12.10;44.20
55135;DHT22;41031;44.750;11.308;2023-04-05T10:13:20;12.00;43.90
55135;DHT22;41031;44.750;11.308;2023-04-05T10:15:49;12.00;43.50
55135;DHT22;41031;44.750;11.308;2023-04-05T10:18:20;11.90;43.30
55135;DHT22;41031;44.750;11.308;2023-04-05T10:20:50;11.90;43.70
55135;DHT22;41031;44.750;11.308;2023-04-05T10:23:24;11.80;44.30
55135;DHT22;41031;44.750;11.308;2023-04-05T10:28:36;11.60;45.90
55135;DHT22;41031;44.750;11.308;2023-04-05T10:31:28;11.60;43.90
55135;DHT22;41031;44.750;11.308;2023-04-05T10:34:05;11.60;44.20
55135;DHT22;41031;44.750;11.308;2023-04-05T10:36:44;11.60;44.30
55135;DHT22;41031;44.750;11.308;2023-04-05T10:39:29;11.70;42.30
55135;DHT22;41031;44.750;11.308;2023-04-05T10:42:20;11.70;42.00
55135;DHT22;41031;44.750;11.308;2023-04-05T10:44:51;11.80;42.70
55135;DHT22;41031;44.750;11.308;2023-04-05T10:47:27;11.90;41.30
55135;DHT22;41031;44.750;11.308;2023-04-05T10:49:55;11.90;43.40
55135;DHT22;41031;44.750;11.308;2023-04-05T10:52:24;11.90;41.60
55135;DHT22;41031;44.750;11.308;2023-04-05T10:54:53;11.90;41.70
55135;DHT22;41031;44.750;11.308;2023-04-05T10:57:22;12.00;41.80
55135;DHT22;41031;44.750;11.308;2023-04-05T10:59:51;12.20;42.70
55135;DHT22;41031;44.750;11.308;2023-04-05T11:02:19;12.40;42.40
55135;DHT22;41031;44.750;11.308;2023-04-05T11:04:53;12.60;41.40
55135;DHT22;41031;44.750;11.308;2023-04-05T11:07:23;12.80;41.80
55135;DHT22;41031;44.750;11.308;2023-04-05T11:10:04;13.00;41.20
55135;DHT22;41031;44.750;11.308;2023-04-05T11:23:14;14.90;41.20
55135;DHT22;41031;44.750;11.308;2023-04-05T11:26:04;15.20;40.10
55135;DHT22;41031;44.750;11.308;2023-04-05T11:28:36;15.40;38.10
55135;DHT22;41031;44.750;11.308;2023-04-05T11:31:19;15.50;37.20
55135;DHT22;41031;44.750;11.308;2023-04-05T11:41:58;15.50;37.40
55135;DHT22;41031;44.750;11.308;2023-04-05T11:44:39;15.40;36.70
55135;DHT22;41031;44.750;11.308;2023-04-05T11:47:07;15.40;33.90
55135;DHT22;41031;44.750;11.308;2023-04-05T11:49:34;15.20;35.60
55135;DHT22;41031;44.750;11.308;2023-04-05T11:52:15;15.20;38.50
55135;DHT22;41031;44.750;11.308;2023-04-05T11:54:43;15.20;39.60
55135;DHT22;41031;44.750;11.308;2023-04-05T11:57:21;15.20;36.90
55135;DHT22;41031;44.750;11.308;2023-04-05T11:59:50;15.20;37.00
55135;DHT22;41031;44.750;11.308;2023-04-05T12:02:18;15.10;38.70
55135;DHT22;41031;44.750;11.308;2023-04-05T12:04:56;15.00;35.70
55135;DHT22;41031;44.750;11.308;2023-04-05T12:07:28;14.90;35.20
55135;DHT22;41031;44.750;11.308;2023-04-05T12:10:06;14.90;37.60
55135;DHT22;41031;44.750;11.308;2023-04-05T12:12:43;14.90;37.00
55135;DHT22;41031;44.750;11.308;2023-04-05T12:15:11;14.90;37.60
55135;DHT22;41031;44.750;11.308;2023-04-05T12:17:45;15.10;38.20
55135;DHT22;41031;44.750;11.308;2023-04-05T12:20:15;15.20;38.40
55135;DHT22;41031;44.750;11.308;2023-04-05T12:22:44;15.40;36.80
55135;DHT22;41031;44.750;11.308;2023-04-05T12:25:12;15.50;36.30
55135;DHT22;41031;44.750;11.308;2023-04-05T12:27:39;15.50;37.50
55135;DHT22;41031;44.750;11.308;2023-04-05T12:30:15;15.50;35.60
55135;DHT22;41031;44.750;11.308;2023-04-05T12:32:44;15.50;36.20
55135;DHT22;41031;44.750;11.308;2023-04-05T12:35:14;15.60;37.10
55135;DHT22;41031;44.750;11.308;2023-04-05T12:37:41;15.70;37.70
55135;DHT22;41031;44.750;11.308;2023-04-05T12:40:09;15.70;35.60
55135;DHT22;41031;44.750;11.308;2023-04-05T12:42:37;15.70;35.40
55135;DHT22;41031;44.750;11.308;2023-04-05T12:45:09;15.60;33.80
55135;DHT22;41031;44.750;11.308;2023-04-05T12:50:17;15.50;35.40
55135;DHT22;41031;44.750;11.308;2023-04-05T12:52:58;15.50;34.70
55135;DHT22;41031;44.750;11.308;2023-04-05T12:55:29;15.50;34.60
55135;DHT22;41031;44.750;11.308;2023-04-05T12:57:59;15.40;36.00
55135;DHT22;41031;44.750;11.308;2023-04-05T13:00:28;15.20;35.50
55135;DHT22;41031;44.750;11.308;2023-04-05T13:02:57;15.10;35.70
55135;DHT22;41031;44.750;11.308;2023-04-05T13:05:26;15.20;36.20
55135;DHT22;41031;44.750;11.308;2023-04-05T13:07:53;15.20;36.40
55135;DHT22;41031;44.750;11.308;2023-04-05T13:10:23;15.30;38.20
55135;DHT22;41031;44.750;11.308;2023-04-05T13:12:51;15.40;35.10
55135;DHT22;41031;44.750;11.308;2023-04-05T13:15:18;15.50;35.70
55135;DHT22;41031;44.750;11.308;2023-04-05T13:17:45;15.60;35.10
55135;DHT22;41031;44.750;11.308;2023-04-05T13:20:16;15.50;35.20
55135;DHT22;41031;44.750;11.308;2023-04-05T13:22:44;15.60;35.40
55135;DHT22;41031;44.750;11.308;2023-04-05T13:25:13;15.60;35.10
55135;DHT22;41031;44.750;11.308;2023-04-05T13:27:40;15.70;36.10
55135;DHT22;41031;44.750;11.308;2023-04-05T13:30:08;15.70;36.20
55135;DHT22;41031;44.750;11.308;2023-04-05T13:32:34;15.80;36.40
55135;DHT22;41031;44.750;11.308;2023-04-05T13:35:02;15.80;36.50
55135;DHT22;41031;44.750;11.308;2023-04-05T13:37:29;15.80;35.10
55135;DHT22;41031;44.750;11.308;2023-04-05T13:39:56;15.80;35.40
55135;DHT22;41031;44.750;11.308;2023-04-05T13:42:23;15.70;32.90
55135;DHT22;41031;44.750;11.308;2023-04-05T13:44:50;15.50;33.20
55135;DHT22;41031;44.750;11.308;2023-04-05T13:47:17;15.20;32.50
55135;DHT22;41031;44.750;11.308;2023-04-05T13:49:45;14.90;35.10
55135;DHT22;41031;44.750;11.308;2023-04-05T13:52:12;14.80;35.80
55135;DHT22;41031;44.750;11.308;2023-04-05T13:54:39;14.70;34.50
55135;DHT22;41031;44.750;11.308;2023-04-05T13:57:06;14.60;33.80
55135;DHT22;41031;44.750;11.308;2023-04-05T13:59:34;14.50;34.60
55135;DHT22;41031;44.750;11.308;2023-04-05T14:02:01;14.50;34.60
55135;DHT22;41031;44.750;11.308;2023-04-05T14:04:28;14.50;33.90
55135;DHT22;41031;44.750;11.308;2023-04-05T14:06:55;14.50;35.90
55135;DHT22;41031;44.750;11.308;2023-04-05T14:09:23;14.60;36.20
55135;DHT22;41031;44.750;11.308;2023-04-05T14:11:50;14.50;32.70
55135;DHT22;41031;44.750;11.308;2023-04-05T14:14:17;14.50;34.30
55135;DHT22;41031;44.750;11.308;2023-04-05T14:16:44;14.50;34.30
55135;DHT22;41031;44.750;11.308;2023-04-05T14:19:11;14.50;35.80
55135;DHT22;41031;44.750;11.308;2023-04-05T14:21:38;14.50;35.70
55135;DHT22;41031;44.750;11.308;2023-04-05T14:24:07;14.60;35.70
55135;DHT22;41031;44.750;11.308;2023-04-05T14:26:34;14.60;34.40
55135;DHT22;41031;44.750;11.308;2023-04-05T14:29:01;14.60;32.40
55135;DHT22;41031;44.750;11.308;2023-04-05T14:31:28;14.50;34.20
55135;DHT22;41031;44.750;11.308;2023-04-05T14:33:55;14.50;33.80
55135;DHT22;41031;44.750;11.308;2023-04-05T14:36:22;14.50;31.80
55135;DHT22;41031;44.750;11.308;2023-04-05T14:38:49;14.40;29.20
55135;DHT22;41031;44.750;11.308;2023-04-05T14:41:16;14.30;32.10
55135;DHT22;41031;44.750;11.308;2023-04-05T14:43:45;14.20;34.00
55135;DHT22;41031;44.750;11.308;2023-04-05T14:46:11;14.10;34.50
55135;DHT22;41031;44.750;11.308;2023-04-05T14:48:39;14.10;32.10
55135;DHT22;41031;44.750;11.308;2023-04-05T14:51:06;14.00;32.70
55135;DHT22;41031;44.750;11.308;2023-04-05T14:53:33;13.90;30.40
55135;DHT22;41031;44.750;11.308;2023-04-05T14:56:00;13.80;32.90
55135;DHT22;41031;44.750;11.308;2023-04-05T14:58:27;13.70;33.40
55135;DHT22;41031;44.750;11.308;2023-04-05T15:00:55;13.60;33.30
55135;DHT22;41031;44.750;11.308;2023-04-05T15:03:23;13.60;34.20
55135;DHT22;41031;44.750;11.308;2023-04-05T15:05:50;13.60;33.10
55135;DHT22;41031;44.750;11.308;2023-04-05T15:08:17;13.70;33.90
55135;DHT22;41031;44.750;11.308;2023-04-05T15:10:45;13.70;32.10
55135;DHT22;41031;44.750;11.308;2023-04-05T15:13:12;13.70;30.40
55135;DHT22;41031;44.750;11.308;2023-04-05T15:15:39;13.60;33.10
55135;DHT22;41031;44.750;11.308;2023-04-05T15:18:06;13.60;32.50
55135;DHT22;41031;44.750;11.308;2023-04-05T15:20:34;13.60;33.00
55135;DHT22;41031;44.750;11.308;2023-04-05T15:23:02;13.50;31.10
55135;DHT22;41031;44.750;11.308;2023-04-05T15:25:29;13.50;32.00
55135;DHT22;41031;44.750;11.308;2023-04-05T15:27:56;13.50;33.40
55135;DHT22;41031;44.750;11.308;2023-04-05T15:30:27;13.40;32.90
55135;DHT22;41031;44.750;11.308;2023-04-05T15:32:54;13.40;33.30
55135;DHT22;41031;44.750;11.308;2023-04-05T15:35:22;13.40;30.60
55135;DHT22;41031;44.750;11.308;2023-04-05T15:37:49;13.30;29.40
55135;DHT22;41031;44.750;11.308;2023-04-05T15:40:17;13.20;31.90
55135;DHT22;41031;44.750;11.308;2023-04-05T15:42:44;13.10;29.80
55135;DHT22;41031;44.750;11.308;2023-04-05T15:45:11;13.00;31.50
55135;DHT22;41031;44.750;11.308;2023-04-05T15:47:38;12.90;31.60
55135;DHT22;41031;44.750;11.308;2023-04-05T15:50:06;12.90;31.50
55135;DHT22;41031;44.750;11.308;2023-04-05T15:52:33;12.80;31.30
55135;DHT22;41031;44.750;11.308;2023-04-05T15:55:01;12.70;32.90
55135;DHT22;41031;44.750;11.308;2023-04-05T15:57:29;12.70;32.00
55135;DHT22;41031;44.750;11.308;2023-04-05T15:59:56;12.60;32.20
55135;DHT22;41031;44.750;11.308;2023-04-05T16:02:23;12.50;32.60
55135;DHT22;41031;44.750;11.308;2023-04-05T16:04:51;12.50;31.40
55135;DHT22;41031;44.750;11.308;2023-04-05T16:07:18;12.40;31.70
55135;DHT22;41031;44.750;11.308;2023-04-05T16:09:45;12.30;31.40
55135;DHT22;41031;44.750;11.308;2023-04-05T16:12:12;12.30;32.80
55135;DHT22;41031;44.750;11.308;2023-04-05T16:14:39;12.20;32.90
55135;DHT22;41031;44.750;11.308;2023-04-05T16:17:06;12.20;32.70